createdAt,value
2023-11-15T00:01:37.720Z,1.83
2023-11-15T00:04:05.087Z,1.80
2023-11-15T00:06:32.393Z,2.35
2023-11-15T00:08:59.628Z,2.10
2023-11-15T00:11:27.077Z,2.45
2023-11-15T00:13:54.383Z,2.35
2023-11-15T00:16:22.198Z,1.40
2023-11-15T00:18:49.486Z,1.65
2023-11-15T00:21:16.756Z,1.48
2023-11-15T00:23:44.067Z,0.90
2023-11-15T00:26:11.307Z,0.70
2023-11-15T00:28:44.252Z,0.75
2023-11-15T00:31:11.804Z,0.80
2023-11-15T00:33:39.130Z,0.70
2023-11-15T00:36:07.131Z,0.68
2023-11-15T00:38:35.928Z,0.50
2023-11-15T00:41:04.824Z,0.85
2023-11-15T00:43:32.661Z,0.50
2023-11-15T00:45:59.890Z,0.93
2023-11-15T00:48:27.141Z,0.75
2023-11-15T00:50:54.471Z,0.75
2023-11-15T00:53:21.783Z,1.25
2023-11-15T00:55:52.155Z,1.25
2023-11-15T00:58:19.339Z,1.15
2023-11-15T01:00:49.028Z,0.82
2023-11-15T01:03:27.167Z,0.73
2023-11-15T01:05:58.314Z,0.80
2023-11-15T01:08:27.105Z,1.13
2023-11-15T01:10:55.767Z,0.88
2023-11-15T01:13:24.612Z,1.02
2023-11-15T01:15:52.977Z,0.75
2023-11-15T01:18:22.292Z,0.98
2023-11-15T01:20:51.041Z,0.80
2023-11-15T01:23:18.514Z,0.70
2023-11-15T01:25:45.804Z,1.08
2023-11-15T01:28:13.351Z,1.02
2023-11-15T01:30:40.524Z,0.85
2023-11-15T01:33:08.233Z,1.00
2023-11-15T01:35:37.229Z,1.00
2023-11-15T01:38:04.541Z,0.95
2023-11-15T01:40:35.469Z,0.88
2023-11-15T01:43:03.301Z,1.00
2023-11-15T01:45:30.441Z,0.80
2023-11-15T01:47:57.879Z,1.27
2023-11-15T01:50:25.450Z,0.82
2023-11-15T01:52:52.692Z,0.93
2023-11-15T01:55:21.525Z,1.05
2023-11-15T01:57:50.201Z,1.10
2023-11-15T02:00:17.726Z,0.95
2023-11-15T02:02:45.232Z,0.80
2023-11-15T02:05:12.572Z,1.10
2023-11-15T02:07:40.400Z,0.95
2023-11-15T02:10:09.007Z,0.80
2023-11-15T02:12:36.306Z,0.88
2023-11-15T02:15:03.637Z,0.98
2023-11-15T02:17:30.967Z,1.15
2023-11-15T02:19:58.179Z,1.20
2023-11-15T02:22:27.382Z,0.68
2023-11-15T02:24:54.954Z,1.05
2023-11-15T02:27:22.330Z,1.05
2023-11-15T02:29:49.551Z,0.98
2023-11-15T02:32:16.777Z,1.00
2023-11-15T02:34:44.000Z,1.30
2023-11-15T02:37:11.223Z,1.30
2023-11-15T02:39:38.374Z,1.58
2023-11-15T02:42:06.001Z,1.88
2023-11-15T02:44:36.081Z,2.40
2023-11-15T02:47:04.153Z,1.65
2023-11-15T02:49:31.392Z,2.03
2023-11-15T02:51:58.621Z,2.00
2023-11-15T02:54:25.837Z,1.92
2023-11-15T02:56:53.134Z,1.95
2023-11-15T02:59:21.362Z,2.10
2023-11-15T03:01:49.114Z,2.33
2023-11-15T03:04:16.435Z,2.00
2023-11-15T03:06:44.150Z,2.00
2023-11-15T03:09:11.612Z,2.60
2023-11-15T03:11:38.852Z,1.73
2023-11-15T03:14:06.218Z,2.58
2023-11-15T03:16:33.493Z,2.10
2023-11-15T03:19:00.712Z,1.80
2023-11-15T03:21:28.187Z,2.20
2023-11-15T03:23:56.193Z,2.65
2023-11-15T03:26:23.498Z,1.65
2023-11-15T03:28:52.033Z,2.05
2023-11-15T03:31:19.313Z,1.98
2023-11-15T03:33:48.694Z,1.83
2023-11-15T03:36:17.099Z,2.00
2023-11-15T03:38:44.513Z,1.92
2023-11-15T03:41:11.927Z,1.73
2023-11-15T03:43:42.578Z,2.35
2023-11-15T03:46:09.761Z,2.05
2023-11-15T03:48:37.061Z,1.75
2023-11-15T03:51:04.448Z,1.73
2023-11-15T03:53:31.854Z,1.70
2023-11-15T03:55:59.086Z,2.38
2023-11-15T03:58:26.371Z,1.80
2023-11-15T04:00:55.340Z,2.20
2023-11-15T04:03:23.656Z,1.85
2023-11-15T04:05:51.293Z,2.05
2023-11-15T04:08:19.836Z,1.73
2023-11-15T04:10:47.051Z,1.75
2023-11-15T04:13:15.698Z,2.42
2023-11-15T04:15:43.036Z,1.80
2023-11-15T04:18:10.497Z,1.90
2023-11-15T04:20:37.795Z,1.70
2023-11-15T04:23:05.159Z,1.90
2023-11-15T04:25:32.748Z,1.75
2023-11-15T04:28:02.011Z,1.58
2023-11-15T04:30:29.393Z,1.38
2023-11-15T04:32:57.954Z,2.00
2023-11-15T04:35:25.283Z,1.63
2023-11-15T04:37:52.484Z,1.85
2023-11-15T04:40:19.760Z,1.75
2023-11-15T04:42:46.967Z,2.10
2023-11-15T04:45:14.166Z,1.70
2023-11-15T04:47:41.558Z,1.88
2023-11-15T04:50:09.611Z,1.90
2023-11-15T04:52:36.870Z,2.00
2023-11-15T04:55:04.095Z,1.80
2023-11-15T04:57:31.310Z,1.85
2023-11-15T04:59:58.576Z,2.03
2023-11-15T05:02:28.476Z,1.73
2023-11-15T05:04:56.563Z,1.45
2023-11-15T05:07:25.974Z,2.58
2023-11-15T05:09:53.130Z,1.45
2023-11-15T05:12:20.341Z,1.77
2023-11-15T05:14:47.615Z,1.58
2023-11-15T05:17:15.264Z,1.70
2023-11-15T05:19:42.492Z,1.65
2023-11-15T05:22:09.726Z,1.83
2023-11-15T05:24:37.747Z,1.70
2023-11-15T05:27:05.159Z,1.60
2023-11-15T05:29:32.378Z,1.70
2023-11-15T05:31:59.916Z,1.70
2023-11-15T05:34:28.136Z,1.63
2023-11-15T05:36:55.383Z,1.60
2023-11-15T05:39:23.519Z,2.10
2023-11-15T05:41:51.063Z,1.92
2023-11-15T05:44:18.469Z,1.75
2023-11-15T05:46:45.711Z,1.65
2023-11-15T05:49:12.944Z,1.70
2023-11-15T05:51:41.464Z,1.85
2023-11-15T05:54:08.861Z,1.70
2023-11-15T05:56:36.196Z,1.80
2023-11-15T05:59:03.732Z,1.70
2023-11-15T06:01:31.038Z,1.92
2023-11-15T06:03:58.366Z,1.83
2023-11-15T06:06:25.626Z,1.70
2023-11-15T06:08:52.841Z,1.70
2023-11-15T06:11:20.162Z,1.73
2023-11-15T06:13:47.423Z,1.80
2023-11-15T06:16:15.593Z,1.67
2023-11-15T06:18:43.629Z,1.95
2023-11-15T06:21:12.509Z,2.03
2023-11-15T06:23:40.166Z,1.75
2023-11-15T06:26:12.329Z,1.40
2023-11-15T06:28:42.092Z,1.95
2023-11-15T06:31:09.310Z,1.60
2023-11-15T06:33:36.623Z,1.90
2023-11-15T06:36:04.330Z,1.88
2023-11-15T06:38:31.831Z,1.92
2023-11-15T06:41:01.617Z,1.85
2023-11-15T06:43:29.044Z,1.70
2023-11-15T06:45:56.952Z,2.33
2023-11-15T06:48:25.360Z,1.77
2023-11-15T06:50:53.398Z,1.25
2023-11-15T06:53:21.011Z,2.05
2023-11-15T06:55:48.306Z,1.92
2023-11-15T06:58:20.227Z,1.70
2023-11-15T07:00:49.017Z,1.85
2023-11-15T07:03:16.358Z,1.45
2023-11-15T07:05:45.110Z,1.65
2023-11-15T07:08:12.638Z,1.50
2023-11-15T07:10:42.034Z,1.52
2023-11-15T07:13:10.032Z,1.83
2023-11-15T07:15:37.581Z,1.67
2023-11-15T07:18:04.981Z,1.52
2023-11-15T07:20:32.212Z,1.75
2023-11-15T07:23:00.338Z,1.75
2023-11-15T07:25:29.230Z,1.52
2023-11-15T07:27:58.800Z,1.70
2023-11-15T07:30:26.470Z,2.03
2023-11-15T07:32:56.480Z,1.48
2023-11-15T07:35:24.152Z,1.40
2023-11-15T07:37:51.366Z,1.38
2023-11-15T07:40:18.924Z,1.80
2023-11-15T07:42:46.537Z,1.52
2023-11-15T07:45:13.939Z,1.30
2023-11-15T07:47:43.238Z,1.42
2023-11-15T07:50:16.181Z,1.42
2023-11-15T07:55:11.924Z,1.40
2023-11-15T07:57:39.250Z,1.50
2023-11-15T08:00:09.591Z,1.67
2023-11-15T08:02:39.926Z,1.50
2023-11-15T08:05:10.165Z,1.58
2023-11-15T08:07:38.660Z,1.95
2023-11-15T08:10:06.324Z,1.67
2023-11-15T08:12:37.053Z,1.45
2023-11-15T08:15:05.212Z,1.63
2023-11-15T08:17:32.689Z,1.60
2023-11-15T08:19:59.925Z,1.55
2023-11-15T08:22:27.155Z,1.35
2023-11-15T08:24:54.380Z,1.58
2023-11-15T08:27:21.782Z,1.70
2023-11-15T08:29:49.385Z,1.10
2023-11-15T08:32:17.195Z,1.30
2023-11-15T08:34:45.853Z,1.10
2023-11-15T08:37:14.253Z,1.77
2023-11-15T08:39:41.529Z,1.48
2023-11-15T08:42:08.908Z,1.50
2023-11-15T08:44:38.585Z,1.50
2023-11-15T08:47:06.005Z,1.65
2023-11-15T08:49:33.266Z,1.00
2023-11-15T08:52:00.729Z,1.40
2023-11-15T08:54:27.998Z,1.20
2023-11-15T08:56:56.207Z,1.83
2023-11-15T08:59:25.475Z,1.27
2023-11-15T09:01:52.714Z,1.30
2023-11-15T09:04:19.889Z,1.13
2023-11-15T09:06:48.288Z,1.75
2023-11-15T09:09:16.574Z,1.67
2023-11-15T09:11:45.537Z,1.73
2023-11-15T09:14:15.165Z,1.77
2023-11-15T09:16:43.725Z,1.60
2023-11-15T09:19:17.282Z,1.00
2023-11-15T09:21:49.215Z,1.30
2023-11-15T09:24:23.791Z,1.60
2023-11-15T09:26:52.292Z,1.48
2023-11-15T09:29:29.502Z,1.30
2023-11-15T09:31:57.135Z,1.05
2023-11-15T09:34:27.133Z,1.10
2023-11-15T09:39:21.968Z,1.50
2023-11-15T09:41:50.545Z,1.30
2023-11-15T09:44:21.195Z,1.27
2023-11-15T09:46:49.088Z,1.50
2023-11-15T09:49:16.980Z,1.10
2023-11-15T09:51:45.668Z,1.90
2023-11-15T09:54:18.394Z,1.10
2023-11-15T09:56:47.617Z,1.60
2023-11-15T09:59:15.891Z,1.20
2023-11-15T10:01:47.288Z,1.10
2023-11-15T10:04:24.986Z,1.42
2023-11-15T10:07:05.468Z,1.50
2023-11-15T10:09:35.178Z,1.70
2023-11-15T10:12:04.263Z,1.63
2023-11-15T10:14:33.509Z,1.88
2023-11-15T10:17:08.138Z,1.48
2023-11-15T10:19:35.823Z,1.67
2023-11-15T10:22:05.582Z,1.17
2023-11-15T10:24:33.548Z,1.42
2023-11-15T10:27:07.470Z,1.40
2023-11-15T10:29:38.616Z,1.00
2023-11-15T10:32:06.261Z,1.25
2023-11-15T10:34:34.642Z,1.20
2023-11-15T10:37:12.187Z,1.20
2023-11-15T10:39:47.084Z,1.42
2023-11-15T10:42:15.638Z,1.23
2023-11-15T10:44:48.425Z,1.50
2023-11-15T10:47:21.030Z,1.10
2023-11-15T10:49:59.155Z,1.15
2023-11-15T10:52:26.970Z,0.73
2023-11-15T10:54:58.320Z,0.98
2023-11-15T10:57:28.529Z,1.38
2023-11-15T10:59:57.945Z,1.30
2023-11-15T11:02:26.289Z,0.93
2023-11-15T11:04:55.523Z,1.80
2023-11-15T11:07:31.606Z,1.38
2023-11-15T11:10:15.943Z,1.60
2023-11-15T11:12:43.497Z,1.23
2023-11-15T11:15:26.146Z,1.55
2023-11-15T11:18:17.269Z,1.70
2023-11-15T11:21:01.551Z,1.70
2023-11-15T11:23:34.654Z,1.55
2023-11-15T11:26:35.262Z,1.40
2023-11-15T11:29:05.998Z,1.30
2023-11-15T11:31:33.543Z,1.85
2023-11-15T11:34:11.595Z,1.73
2023-11-15T11:36:46.930Z,1.45
2023-11-15T11:39:14.246Z,1.08
2023-11-15T11:41:41.505Z,1.63
2023-11-15T11:44:08.709Z,1.20
2023-11-15T11:46:35.978Z,1.20
2023-11-15T11:49:03.520Z,1.33
2023-11-15T11:51:30.974Z,1.20
2023-11-15T11:53:58.955Z,1.80
2023-11-15T11:56:26.616Z,1.40
2023-11-15T11:58:53.880Z,0.82
2023-11-15T12:01:22.550Z,1.38
2023-11-15T12:03:50.140Z,1.33
2023-11-15T12:06:19.321Z,2.00
2023-11-15T12:08:53.279Z,1.30
2023-11-15T12:11:23.886Z,1.55
2023-11-15T12:13:52.847Z,1.33
2023-11-15T12:16:22.024Z,1.65
2023-11-15T12:19:07.298Z,1.48
2023-11-15T12:21:37.925Z,1.30
2023-11-15T12:24:11.137Z,1.52
2023-11-15T12:26:44.881Z,1.63
2023-11-15T12:29:21.978Z,1.30
2023-11-15T12:31:50.281Z,1.60
2023-11-15T12:34:18.913Z,1.23
2023-11-15T12:36:47.828Z,1.35
2023-11-15T12:39:17.398Z,1.58
2023-11-15T12:41:47.880Z,1.40
2023-11-15T12:44:15.928Z,1.45
2023-11-15T12:46:44.522Z,1.40
2023-11-15T12:49:15.882Z,1.35
2023-11-15T12:51:49.799Z,1.45
2023-11-15T12:54:17.637Z,1.73
2023-11-15T12:56:45.691Z,1.52
2023-11-15T12:59:15.889Z,1.63
2023-11-15T13:04:11.007Z,1.65
2023-11-15T13:06:38.575Z,1.60
2023-11-15T13:09:09.144Z,1.38
2023-11-15T13:11:36.623Z,1.63
2023-11-15T13:14:04.036Z,1.30
2023-11-15T13:16:33.683Z,1.67
2023-11-15T13:19:00.987Z,1.23
2023-11-15T13:21:30.781Z,1.63
2023-11-15T13:23:58.135Z,1.42
2023-11-15T13:26:26.145Z,1.55
2023-11-15T13:28:54.197Z,1.40
2023-11-15T13:31:25.990Z,1.45
2023-11-15T13:33:56.581Z,1.58
2023-11-15T13:36:25.516Z,1.52
2023-11-15T13:38:53.273Z,1.52
2023-11-15T13:41:24.416Z,1.88
2023-11-15T13:43:55.883Z,1.88
2023-11-15T13:46:24.628Z,2.00
2023-11-15T13:48:53.849Z,1.83
2023-11-15T13:51:22.460Z,1.58
2023-11-15T13:53:49.804Z,1.83
2023-11-15T13:56:17.005Z,1.77
2023-11-15T13:58:44.222Z,1.75
2023-11-15T14:01:12.075Z,1.92
2023-11-15T14:03:39.793Z,1.42
2023-11-15T14:06:07.622Z,1.92
2023-11-15T14:08:47.167Z,1.60
2023-11-15T14:11:23.380Z,1.70
2023-11-15T14:13:50.830Z,1.85
2023-11-15T14:16:18.667Z,1.92
2023-11-15T14:18:48.779Z,2.13
2023-11-15T14:21:16.586Z,2.13
2023-11-15T14:23:44.593Z,2.38
2023-11-15T14:26:14.992Z,1.40
2023-11-15T14:28:44.427Z,1.65
2023-11-15T14:31:11.852Z,1.83
2023-11-15T14:33:39.531Z,1.75
2023-11-15T14:36:07.850Z,1.52
2023-11-15T14:38:35.152Z,1.65
2023-11-15T14:41:02.451Z,1.67
2023-11-15T14:43:29.897Z,1.58
2023-11-15T14:45:57.132Z,1.70
2023-11-15T14:48:24.400Z,2.00
2023-11-15T14:50:52.436Z,1.40
2023-11-15T14:53:30.792Z,1.73
2023-11-15T14:55:59.177Z,1.50
2023-11-15T14:58:27.460Z,1.80
2023-11-15T15:00:55.420Z,1.75
2023-11-15T15:03:24.485Z,2.13
2023-11-15T15:05:52.941Z,2.38
2023-11-15T15:08:22.951Z,1.38
2023-11-15T15:10:54.998Z,1.90
2023-11-15T15:13:23.125Z,1.73
2023-11-15T15:15:50.430Z,1.77
2023-11-15T15:18:22.064Z,2.15
2023-11-15T15:20:53.520Z,1.70
2023-11-15T15:23:21.677Z,1.63
2023-11-15T15:25:49.400Z,1.65
2023-11-15T15:28:16.853Z,1.40
2023-11-15T15:30:44.540Z,1.55
2023-11-15T15:33:12.102Z,2.00
2023-11-15T15:35:39.788Z,1.45
2023-11-15T15:38:09.718Z,1.90
2023-11-15T15:40:40.189Z,1.80
2023-11-15T15:43:08.700Z,1.98
2023-11-15T15:45:37.557Z,1.85
2023-11-15T15:48:05.799Z,1.95
2023-11-15T15:50:34.554Z,1.42
2023-11-15T15:53:02.192Z,1.73
2023-11-15T15:55:29.666Z,2.00
2023-11-15T15:57:56.928Z,2.42
2023-11-15T16:00:25.467Z,2.70
2023-11-15T16:02:54.280Z,2.10
2023-11-15T16:05:22.707Z,2.17
2023-11-15T16:07:49.878Z,1.73
2023-11-15T16:10:17.480Z,2.10
2023-11-15T16:12:44.705Z,1.80
2023-11-15T16:15:17.694Z,1.55
2023-11-15T16:17:45.509Z,2.45
2023-11-15T16:20:13.227Z,4.10
2023-11-15T16:22:40.867Z,1.55
2023-11-15T16:25:08.340Z,2.10
2023-11-15T16:27:37.766Z,1.92
2023-11-15T16:30:14.672Z,1.75
2023-11-15T16:32:42.663Z,1.80
2023-11-15T16:35:10.706Z,1.55
2023-11-15T16:37:40.025Z,1.58
2023-11-15T16:40:11.024Z,1.60
2023-11-15T16:42:38.932Z,1.73
2023-11-15T16:45:08.181Z,1.52
2023-11-15T16:47:39.422Z,1.63
2023-11-15T16:50:08.061Z,1.50
2023-11-15T16:52:38.839Z,1.33
2023-11-15T16:55:13.602Z,1.63
2023-11-15T16:57:41.063Z,1.92
2023-11-15T17:00:09.730Z,1.48
2023-11-15T17:02:37.069Z,2.40
2023-11-15T17:05:05.262Z,1.70
2023-11-15T17:07:33.202Z,1.58
2023-11-15T17:10:01.471Z,1.63
2023-11-15T17:12:30.297Z,1.50
2023-11-15T17:15:00.025Z,1.25
2023-11-15T17:17:29.611Z,2.47
2023-11-15T17:19:58.341Z,1.90
2023-11-15T17:22:25.666Z,1.60
2023-11-15T17:24:53.933Z,1.75
2023-11-15T17:27:22.432Z,1.50
2023-11-15T17:29:51.870Z,1.80
2023-11-15T17:32:19.110Z,1.80
2023-11-15T17:34:46.393Z,1.60
2023-11-15T17:37:13.658Z,1.90
2023-11-15T17:39:41.051Z,1.75
2023-11-15T17:42:08.513Z,1.60
2023-11-15T17:44:35.978Z,1.83
2023-11-15T17:47:03.201Z,1.58
2023-11-15T17:49:30.636Z,2.33
2023-11-15T17:51:57.968Z,1.88
2023-11-15T17:54:25.265Z,1.80
2023-11-15T17:56:52.529Z,1.98
2023-11-15T17:59:19.831Z,2.28
2023-11-15T18:01:47.115Z,2.22
2023-11-15T18:04:16.399Z,2.63
2023-11-15T18:06:44.340Z,2.17
2023-11-15T18:09:11.829Z,1.92
2023-11-15T18:11:39.182Z,2.38
2023-11-15T18:14:07.385Z,2.20
2023-11-15T18:16:34.802Z,2.45
2023-11-15T18:19:08.777Z,2.38
2023-11-15T18:21:36.417Z,2.53
2023-11-15T18:24:03.680Z,1.83
2023-11-15T18:26:32.837Z,1.83
2023-11-15T18:29:01.574Z,1.98
2023-11-15T18:31:29.661Z,1.83
2023-11-15T18:33:58.988Z,1.80
2023-11-15T18:36:26.881Z,2.28
2023-11-15T18:38:54.276Z,2.13
2023-11-15T18:41:21.614Z,2.00
2023-11-15T18:43:50.284Z,1.92
2023-11-15T18:46:17.912Z,2.00
2023-11-15T18:48:45.457Z,2.35
2023-11-15T18:51:13.511Z,2.25
2023-11-15T18:53:40.858Z,2.08
2023-11-15T18:56:08.718Z,2.35
2023-11-15T18:58:37.186Z,2.08
2023-11-15T19:01:04.782Z,2.45
2023-11-15T19:03:32.230Z,1.55
2023-11-15T19:05:59.658Z,2.03
2023-11-15T19:08:28.062Z,2.15
2023-11-15T19:10:55.866Z,1.60
2023-11-15T19:13:25.961Z,1.85
2023-11-15T19:15:53.323Z,1.88
2023-11-15T19:18:20.812Z,1.63
2023-11-15T19:20:48.202Z,1.80
2023-11-15T19:23:17.602Z,1.77
2023-11-15T19:25:46.669Z,1.95
2023-11-15T19:28:16.649Z,2.15
2023-11-15T19:30:45.041Z,1.88
2023-11-15T19:33:13.676Z,1.75
2023-11-15T19:35:41.537Z,1.80
2023-11-15T19:38:08.814Z,1.52
2023-11-15T19:40:36.368Z,1.90
2023-11-15T19:43:03.785Z,1.42
2023-11-15T19:45:32.356Z,1.60
2023-11-15T19:47:59.953Z,1.50
2023-11-15T19:50:27.365Z,1.42
2023-11-15T19:52:55.218Z,1.92
2023-11-15T19:55:22.472Z,1.58
2023-11-15T19:57:49.691Z,1.60
2023-11-15T20:00:17.955Z,1.50
2023-11-15T20:02:47.948Z,1.77
2023-11-15T20:05:16.444Z,1.52
2023-11-15T20:07:44.108Z,1.77
2023-11-15T20:10:11.293Z,1.85
2023-11-15T20:12:42.329Z,1.80
2023-11-15T20:15:11.426Z,1.40
2023-11-15T20:17:39.245Z,1.63
2023-11-15T20:20:08.024Z,1.25
2023-11-15T20:22:45.257Z,1.50
2023-11-15T20:25:19.004Z,1.17
2023-11-15T20:27:46.318Z,1.60
2023-11-15T20:30:14.676Z,1.70
2023-11-15T20:32:42.251Z,1.48
2023-11-15T20:35:11.832Z,1.55
2023-11-15T20:37:39.401Z,1.08
2023-11-15T20:40:08.560Z,1.30
2023-11-15T20:42:36.233Z,1.63
2023-11-15T20:45:03.737Z,1.38
2023-11-15T20:47:31.249Z,1.50
2023-11-15T20:49:58.542Z,1.80
2023-11-15T20:52:25.920Z,2.15
2023-11-15T20:54:53.306Z,1.50
2023-11-15T20:57:23.889Z,1.25
2023-11-15T20:59:53.393Z,1.30
2023-11-15T21:02:23.061Z,1.15
2023-11-15T21:04:50.859Z,0.95
2023-11-15T21:07:18.180Z,1.13
2023-11-15T21:09:48.517Z,1.30
2023-11-15T21:12:15.909Z,1.38
2023-11-15T21:14:43.084Z,1.67
2023-11-15T21:17:10.267Z,1.60
2023-11-15T21:19:40.108Z,1.40
2023-11-15T21:22:07.346Z,1.45
2023-11-15T21:24:34.630Z,1.70
2023-11-15T21:27:01.934Z,1.52
2023-11-15T21:29:29.207Z,1.25
2023-11-15T21:31:57.046Z,1.40
2023-11-15T21:34:24.652Z,1.60
2023-11-15T21:36:52.530Z,1.70
2023-11-15T21:39:20.762Z,1.40
2023-11-15T21:41:48.011Z,1.85
2023-11-15T21:44:17.634Z,1.35
2023-11-15T21:46:45.072Z,1.20
2023-11-15T21:49:12.466Z,1.02
2023-11-15T21:51:40.517Z,1.05
2023-11-15T21:54:08.562Z,1.33
2023-11-15T21:56:35.828Z,1.15
2023-11-15T21:59:03.020Z,1.67
2023-11-15T22:01:31.216Z,1.98
2023-11-15T22:03:58.730Z,1.27
2023-11-15T22:06:27.886Z,1.45
2023-11-15T22:08:55.191Z,1.73
2023-11-15T22:11:22.417Z,1.63
2023-11-15T22:13:49.603Z,1.48
2023-11-15T22:16:17.720Z,1.23
2023-11-15T22:18:45.768Z,1.67
2023-11-15T22:21:13.034Z,1.40
2023-11-15T22:23:41.159Z,1.30
2023-11-15T22:26:08.411Z,1.23
2023-11-15T22:28:35.686Z,1.48
2023-11-15T22:31:03.992Z,1.42
2023-11-15T22:33:31.347Z,1.55
2023-11-15T22:35:59.675Z,1.80
2023-11-15T22:38:26.896Z,1.75
2023-11-15T22:40:54.237Z,1.85
2023-11-15T22:43:21.419Z,1.50
2023-11-15T22:45:48.842Z,1.65
2023-11-15T22:48:16.900Z,1.40
2023-11-15T22:50:45.054Z,1.60
2023-11-15T22:53:12.374Z,1.52
2023-11-15T22:55:39.669Z,1.30
2023-11-15T22:58:06.931Z,1.60
2023-11-15T23:00:35.007Z,1.42
2023-11-15T23:03:13.913Z,1.45
2023-11-15T23:05:43.373Z,1.35
2023-11-15T23:08:13.929Z,1.05
2023-11-15T23:10:41.280Z,1.20
2023-11-15T23:13:08.489Z,1.02
2023-11-15T23:15:35.781Z,1.73
2023-11-15T23:18:04.827Z,1.13
2023-11-15T23:20:41.885Z,1.67
2023-11-15T23:23:11.353Z,1.50
2023-11-15T23:25:39.012Z,1.40
2023-11-15T23:28:07.306Z,1.55
2023-11-15T23:30:36.206Z,1.10
2023-11-15T23:33:03.973Z,1.60
2023-11-15T23:35:32.987Z,1.48
2023-11-15T23:38:00.394Z,1.50
2023-11-15T23:40:28.864Z,1.10
2023-11-15T23:42:57.199Z,1.13
2023-11-15T23:45:25.065Z,1.75
2023-11-15T23:47:52.848Z,1.52
2023-11-15T23:50:20.478Z,1.52
2023-11-15T23:52:54.306Z,1.48
2023-11-15T23:55:22.067Z,1.27
2023-11-15T23:57:49.580Z,2.03
